createdAt,value
2023-01-06T00:01:27.000Z,100
2023-01-06T00:02:53.000Z,100
2023-01-06T00:04:59.000Z,100
2023-01-06T00:07:50.000Z,100
2023-01-06T00:09:17.000Z,100
2023-01-06T00:11:23.000Z,100
2023-01-06T00:12:50.000Z,100
2023-01-06T00:14:56.000Z,100
2023-01-06T00:16:22.000Z,100
2023-01-06T00:18:29.000Z,100
2023-01-06T00:19:55.000Z,100
2023-01-06T00:22:01.000Z,100
2023-01-06T00:23:28.000Z,100
2023-01-06T00:25:34.000Z,100
2023-01-06T00:27:00.000Z,100
2023-01-06T00:29:06.000Z,100
2023-01-06T00:30:33.000Z,100
2023-01-06T00:32:39.000Z,100
2023-01-06T00:34:05.000Z,100
2023-01-06T00:36:11.000Z,100
2023-01-06T00:37:38.000Z,100
2023-01-06T00:39:44.000Z,100
2023-01-06T00:41:11.000Z,100
2023-01-06T00:43:17.000Z,100
2023-01-06T00:46:08.000Z,100
2023-01-06T00:47:34.000Z,100
2023-01-06T00:49:41.000Z,100
2023-01-06T00:51:07.000Z,100
2023-01-06T00:53:13.000Z,100
2023-01-06T00:54:40.000Z,100
2023-01-06T00:56:46.000Z,100
2023-01-06T00:58:12.000Z,100
2023-01-06T01:00:19.000Z,100
2023-01-06T01:01:45.000Z,100
2023-01-06T01:03:51.000Z,100
2023-01-06T01:05:18.000Z,100
2023-01-06T01:07:24.000Z,100
2023-01-06T01:08:51.000Z,100
2023-01-06T01:10:57.000Z,100
2023-01-06T01:12:23.000Z,100
2023-01-06T01:14:29.000Z,100
2023-01-06T01:15:56.000Z,100
2023-01-06T01:18:02.000Z,100
2023-01-06T01:19:29.000Z,100
2023-01-06T01:21:35.000Z,100
2023-01-06T01:24:26.000Z,100
2023-01-06T01:25:52.000Z,100
2023-01-06T01:27:59.000Z,100
2023-01-06T01:29:25.000Z,100
2023-01-06T01:31:31.000Z,100
2023-01-06T01:32:58.000Z,100
2023-01-06T01:35:04.000Z,100
2023-01-06T01:36:30.000Z,100
2023-01-06T01:38:37.000Z,100
2023-01-06T01:40:03.000Z,100
2023-01-06T01:42:09.000Z,100
2023-01-06T01:43:36.000Z,100
2023-01-06T01:45:42.000Z,100
2023-01-06T01:47:08.000Z,100
2023-01-06T01:49:15.000Z,100
2023-01-06T01:50:41.000Z,100
2023-01-06T01:52:47.000Z,100
2023-01-06T01:54:14.000Z,100
2023-01-06T01:56:20.000Z,100
2023-01-06T01:57:46.000Z,100
2023-01-06T01:59:53.000Z,100
2023-01-06T02:02:44.000Z,100
2023-01-06T02:04:11.000Z,100
2023-01-06T02:06:17.000Z,100
2023-01-06T02:07:43.000Z,100
2023-01-06T02:09:49.000Z,100
2023-01-06T02:11:16.000Z,100
2023-01-06T02:13:22.000Z,100
2023-01-06T02:14:49.000Z,100
2023-01-06T02:16:55.000Z,100
2023-01-06T02:18:21.000Z,100
2023-01-06T02:20:27.000Z,100
2023-01-06T02:21:54.000Z,100
2023-01-06T02:24:00.000Z,100
2023-01-06T02:25:26.000Z,100
2023-01-06T02:27:33.000Z,100
2023-01-06T02:28:59.000Z,100
2023-01-06T02:31:05.000Z,100
2023-01-06T02:32:32.000Z,100
2023-01-06T02:34:38.000Z,100
2023-01-06T02:36:05.000Z,100
2023-01-06T02:38:11.000Z,100
2023-01-06T02:41:02.000Z,100
2023-01-06T02:42:29.000Z,100
2023-01-06T02:44:35.000Z,100
2023-01-06T02:46:01.000Z,100
2023-01-06T02:48:07.000Z,100
2023-01-06T02:49:34.000Z,100
2023-01-06T02:51:40.000Z,100
2023-01-06T02:53:07.000Z,100
2023-01-06T02:55:13.000Z,100
2023-01-06T02:56:39.000Z,100
2023-01-06T02:58:45.000Z,100
2023-01-06T03:00:12.000Z,100
2023-01-06T03:02:18.000Z,100
2023-01-06T03:03:45.000Z,100
2023-01-06T03:05:51.000Z,100
2023-01-06T03:07:17.000Z,100
2023-01-06T03:09:23.000Z,100
2023-01-06T03:10:50.000Z,100
2023-01-06T03:12:56.000Z,100
2023-01-06T03:14:23.000Z,100
2023-01-06T03:16:29.000Z,100
2023-01-06T03:19:20.000Z,100
2023-01-06T03:20:46.000Z,100
2023-01-06T03:22:52.000Z,100
2023-01-06T03:24:19.000Z,100
2023-01-06T03:26:25.000Z,100
2023-01-06T03:27:52.000Z,100
2023-01-06T03:29:58.000Z,100
2023-01-06T03:31:24.000Z,100
2023-01-06T03:33:31.000Z,100
2023-01-06T03:34:57.000Z,100
2023-01-06T03:37:03.000Z,100
2023-01-06T03:38:30.000Z,100
2023-01-06T03:40:36.000Z,100
2023-01-06T03:42:03.000Z,100
2023-01-06T03:44:09.000Z,100
2023-01-06T03:45:35.000Z,100
2023-01-06T03:47:41.000Z,100
2023-01-06T03:49:08.000Z,100
2023-01-06T03:51:14.000Z,100
2023-01-06T03:52:41.000Z,100
2023-01-06T03:54:47.000Z,100
2023-01-06T03:57:38.000Z,100
2023-01-06T03:59:04.000Z,100
2023-01-06T04:01:11.000Z,100
2023-01-06T04:02:37.000Z,100
2023-01-06T04:04:43.000Z,100
2023-01-06T04:06:10.000Z,100
2023-01-06T04:08:16.000Z,100
2023-01-06T04:09:42.000Z,100
2023-01-06T04:11:49.000Z,100
2023-01-06T04:13:15.000Z,100
2023-01-06T04:15:21.000Z,100
2023-01-06T04:16:48.000Z,100
2023-01-06T04:18:54.000Z,100
2023-01-06T04:20:20.000Z,100
2023-01-06T04:22:27.000Z,100
2023-01-06T04:23:53.000Z,100
2023-01-06T04:25:59.000Z,100
2023-01-06T04:27:26.000Z,100
2023-01-06T04:29:32.000Z,100
2023-01-06T04:30:59.000Z,100
2023-01-06T04:33:05.000Z,100
2023-01-06T04:35:56.000Z,100
2023-01-06T04:37:22.000Z,100
2023-01-06T04:39:28.000Z,100
2023-01-06T04:40:55.000Z,100
2023-01-06T04:43:01.000Z,100
2023-01-06T04:44:28.000Z,100
2023-01-06T04:46:34.000Z,100
2023-01-06T04:48:00.000Z,100
2023-01-06T04:50:06.000Z,100
2023-01-06T04:51:33.000Z,98
2023-01-06T04:53:39.000Z,99
2023-01-06T04:55:05.000Z,99
2023-01-06T04:57:11.000Z,98
2023-01-06T04:58:38.000Z,98
2023-01-06T05:00:44.000Z,99
2023-01-06T05:02:11.000Z,98
2023-01-06T05:04:17.000Z,99
2023-01-06T05:05:43.000Z,98
2023-01-06T05:07:49.000Z,98
2023-01-06T05:09:16.000Z,99
2023-01-06T05:11:22.000Z,99
2023-01-06T05:14:13.000Z,99
2023-01-06T05:15:40.000Z,100
2023-01-06T05:17:46.000Z,99
2023-01-06T05:19:12.000Z,99
2023-01-06T05:21:19.000Z,100
2023-01-06T05:22:45.000Z,100
2023-01-06T05:24:51.000Z,100
2023-01-06T05:26:18.000Z,100
2023-01-06T05:28:24.000Z,99
2023-01-06T05:32:29.000Z,98
2023-01-06T05:33:55.000Z,95
2023-01-06T05:36:02.000Z,96
2023-01-06T05:37:28.000Z,96
2023-01-06T05:39:34.000Z,96
2023-01-06T05:41:01.000Z,95
2023-01-06T05:43:07.000Z,96
2023-01-06T05:44:33.000Z,97
2023-01-06T05:46:40.000Z,95
2023-01-06T05:48:06.000Z,96
2023-01-06T05:50:12.000Z,97
2023-01-06T05:53:04.000Z,95
2023-01-06T05:54:30.000Z,92
2023-01-06T05:56:36.000Z,92
2023-01-06T05:58:03.000Z,92
2023-01-06T06:00:09.000Z,92
2023-01-06T06:01:35.000Z,91
2023-01-06T06:03:42.000Z,91
2023-01-06T06:05:08.000Z,91
2023-01-06T06:07:15.000Z,91
2023-01-06T06:08:41.000Z,90
2023-01-06T06:10:47.000Z,90
2023-01-06T06:12:14.000Z,91
2023-01-06T06:14:20.000Z,90
2023-01-06T06:15:46.000Z,90
2023-01-06T06:17:52.000Z,89
2023-01-06T06:19:19.000Z,90
2023-01-06T06:21:25.000Z,89
2023-01-06T06:22:52.000Z,90
2023-01-06T06:24:58.000Z,90
2023-01-06T06:26:24.000Z,90
2023-01-06T06:28:30.000Z,90
2023-01-06T06:31:22.000Z,90
2023-01-06T06:32:49.000Z,90
2023-01-06T06:34:55.000Z,90
2023-01-06T06:36:21.000Z,90
2023-01-06T06:38:27.000Z,91
2023-01-06T06:39:54.000Z,90
2023-01-06T06:42:00.000Z,90
2023-01-06T06:43:26.000Z,90
2023-01-06T06:45:32.000Z,90
2023-01-06T06:46:59.000Z,90
2023-01-06T06:49:05.000Z,91
2023-01-06T06:50:32.000Z,90
2023-01-06T06:52:38.000Z,90
2023-01-06T06:54:04.000Z,90
2023-01-06T06:56:10.000Z,90
2023-01-06T06:57:37.000Z,90
2023-01-06T06:59:43.000Z,90
2023-01-06T07:01:09.000Z,90
2023-01-06T07:03:16.000Z,90
2023-01-06T07:04:42.000Z,90
2023-01-06T07:06:49.000Z,89
2023-01-06T07:09:40.000Z,90
2023-01-06T07:11:06.000Z,90
2023-01-06T07:13:12.000Z,91
2023-01-06T07:14:39.000Z,91
2023-01-06T07:16:45.000Z,92
2023-01-06T07:18:11.000Z,91
2023-01-06T07:20:17.000Z,91
2023-01-06T07:21:44.000Z,92
2023-01-06T07:23:50.000Z,92
2023-01-06T07:25:17.000Z,92
2023-01-06T07:27:23.000Z,92
2023-01-06T07:28:49.000Z,92
2023-01-06T07:30:55.000Z,92
2023-01-06T07:32:22.000Z,91
2023-01-06T07:34:28.000Z,90
2023-01-06T07:35:55.000Z,89
2023-01-06T07:38:01.000Z,89
2023-01-06T07:39:27.000Z,89
2023-01-06T07:41:33.000Z,89
2023-01-06T07:43:00.000Z,89
2023-01-06T07:45:06.000Z,88
2023-01-06T07:47:57.000Z,89
2023-01-06T07:49:24.000Z,89
2023-01-06T07:51:30.000Z,89
2023-01-06T07:52:56.000Z,88
2023-01-06T07:55:03.000Z,88
2023-01-06T07:56:29.000Z,88
2023-01-06T07:58:35.000Z,88
2023-01-06T08:00:02.000Z,88
2023-01-06T08:02:08.000Z,89
2023-01-06T08:03:34.000Z,89
2023-01-06T08:05:41.000Z,89
2023-01-06T08:07:07.000Z,89
2023-01-06T08:09:13.000Z,89
2023-01-06T08:10:40.000Z,89
2023-01-06T08:12:46.000Z,90
2023-01-06T08:14:12.000Z,89
2023-01-06T08:16:19.000Z,89
2023-01-06T08:17:45.000Z,89
2023-01-06T08:19:51.000Z,89
2023-01-06T08:21:18.000Z,89
2023-01-06T08:23:24.000Z,89
2023-01-06T08:26:15.000Z,89
2023-01-06T08:27:42.000Z,89
2023-01-06T08:29:48.000Z,89
2023-01-06T08:31:14.000Z,89
2023-01-06T08:33:21.000Z,89
2023-01-06T08:34:47.000Z,89
2023-01-06T08:36:53.000Z,89
2023-01-06T08:38:20.000Z,89
2023-01-06T08:40:26.000Z,89
2023-01-06T08:41:52.000Z,89
2023-01-06T08:43:58.000Z,89
2023-01-06T08:45:25.000Z,89
2023-01-06T08:47:31.000Z,89
2023-01-06T08:48:57.000Z,89
2023-01-06T08:51:04.000Z,89
2023-01-06T08:52:30.000Z,90
2023-01-06T08:54:36.000Z,90
2023-01-06T08:56:03.000Z,90
2023-01-06T08:58:09.000Z,90
2023-01-06T08:59:35.000Z,91
2023-01-06T09:01:41.000Z,91
2023-01-06T09:04:33.000Z,91
2023-01-06T09:05:59.000Z,91
2023-01-06T09:08:06.000Z,91
2023-01-06T09:09:32.000Z,91
2023-01-06T09:11:38.000Z,91
2023-01-06T09:13:05.000Z,91
2023-01-06T09:15:11.000Z,91
2023-01-06T09:16:37.000Z,91
2023-01-06T09:18:44.000Z,91
2023-01-06T09:20:10.000Z,92
2023-01-06T09:22:16.000Z,92
2023-01-06T09:23:43.000Z,93
2023-01-06T09:25:49.000Z,92
2023-01-06T09:27:16.000Z,93
2023-01-06T09:29:22.000Z,93
2023-01-06T09:30:48.000Z,93
2023-01-06T09:32:54.000Z,93
2023-01-06T09:34:21.000Z,93
2023-01-06T09:36:27.000Z,93
2023-01-06T09:37:54.000Z,93
2023-01-06T09:40:00.000Z,93
2023-01-06T09:42:51.000Z,93
2023-01-06T09:44:17.000Z,93
2023-01-06T09:46:24.000Z,93
2023-01-06T09:47:50.000Z,94
2023-01-06T09:49:56.000Z,94
2023-01-06T09:51:23.000Z,94
2023-01-06T09:53:29.000Z,94
2023-01-06T09:54:55.000Z,95
2023-01-06T09:57:01.000Z,94
2023-01-06T09:58:28.000Z,95
2023-01-06T10:00:34.000Z,95
2023-01-06T10:02:01.000Z,95
2023-01-06T10:04:07.000Z,95
2023-01-06T10:05:34.000Z,95
2023-01-06T10:07:40.000Z,95
2023-01-06T10:09:06.000Z,95
2023-01-06T10:11:13.000Z,95
2023-01-06T10:12:39.000Z,95
2023-01-06T10:14:45.000Z,95
2023-01-06T10:16:12.000Z,95
2023-01-06T10:18:18.000Z,95
2023-01-06T10:21:09.000Z,95
2023-01-06T10:22:36.000Z,95
2023-01-06T10:24:42.000Z,95
2023-01-06T10:26:08.000Z,94
2023-01-06T10:28:14.000Z,94
2023-01-06T10:29:41.000Z,94
2023-01-06T10:31:47.000Z,94
2023-01-06T10:33:14.000Z,94
2023-01-06T10:35:20.000Z,94
2023-01-06T10:36:46.000Z,93
2023-01-06T10:38:53.000Z,93
2023-01-06T10:40:19.000Z,93
2023-01-06T10:42:25.000Z,94
2023-01-06T10:43:52.000Z,93
2023-01-06T10:45:58.000Z,92
2023-01-06T10:47:25.000Z,93
2023-01-06T10:49:31.000Z,93
2023-01-06T10:50:57.000Z,93
2023-01-06T10:53:04.000Z,93
2023-01-06T10:54:30.000Z,93
2023-01-06T10:56:36.000Z,93
2023-01-06T10:59:28.000Z,93
2023-01-06T11:00:54.000Z,93
2023-01-06T11:03:00.000Z,93
2023-01-06T11:04:46.000Z,93
2023-01-06T11:06:52.000Z,93
2023-01-06T11:08:18.000Z,93
2023-01-06T11:10:24.000Z,93
2023-01-06T11:11:51.000Z,94
2023-01-06T11:13:57.000Z,93
2023-01-06T11:15:24.000Z,93
2023-01-06T11:17:30.000Z,93
2023-01-06T11:18:56.000Z,94
2023-01-06T11:21:02.000Z,94
2023-01-06T11:24:35.000Z,93
2023-01-06T11:26:01.000Z,94
2023-01-06T11:28:07.000Z,93
2023-01-06T11:29:34.000Z,93
2023-01-06T11:31:40.000Z,93
2023-01-06T11:33:07.000Z,93
2023-01-06T11:35:13.000Z,93
2023-01-06T11:38:04.000Z,93
2023-01-06T11:39:31.000Z,93
2023-01-06T11:41:37.000Z,93
2023-01-06T11:43:03.000Z,93
2023-01-06T11:45:10.000Z,92
2023-01-06T11:46:36.000Z,93
2023-01-06T11:48:42.000Z,93
2023-01-06T11:50:09.000Z,93
2023-01-06T11:52:15.000Z,93
2023-01-06T11:53:41.000Z,93
2023-01-06T11:55:47.000Z,93
2023-01-06T11:57:14.000Z,93
2023-01-06T11:59:20.000Z,94
2023-01-06T12:00:47.000Z,93
2023-01-06T12:02:53.000Z,94
2023-01-06T12:04:20.000Z,93
2023-01-06T12:06:26.000Z,94
2023-01-06T12:07:52.000Z,94
2023-01-06T12:09:59.000Z,94
2023-01-06T12:11:25.000Z,94
2023-01-06T12:13:31.000Z,94
2023-01-06T12:16:30.000Z,94
2023-01-06T12:17:57.000Z,94
2023-01-06T12:20:03.000Z,94
2023-01-06T12:21:29.000Z,95
2023-01-06T12:23:35.000Z,94
2023-01-06T12:25:02.000Z,94
2023-01-06T12:27:08.000Z,94
2023-01-06T12:28:35.000Z,94
2023-01-06T12:30:41.000Z,95
2023-01-06T12:32:07.000Z,95
2023-01-06T12:34:14.000Z,95
2023-01-06T12:35:40.000Z,94
2023-01-06T12:37:46.000Z,95
2023-01-06T12:39:13.000Z,95
2023-01-06T12:41:19.000Z,95
2023-01-06T12:42:45.000Z,95
2023-01-06T12:44:52.000Z,94
2023-01-06T12:46:18.000Z,95
2023-01-06T12:48:25.000Z,95
2023-01-06T12:49:51.000Z,95
2023-01-06T12:51:57.000Z,96
2023-01-06T12:54:49.000Z,95
2023-01-06T12:56:15.000Z,95
2023-01-06T12:58:21.000Z,96
2023-01-06T12:59:48.000Z,96
2023-01-06T13:01:54.000Z,95
2023-01-06T13:03:21.000Z,95
2023-01-06T13:05:27.000Z,96
2023-01-06T13:06:54.000Z,95
2023-01-06T13:09:00.000Z,95
2023-01-06T13:10:26.000Z,95
2023-01-06T13:12:32.000Z,96
2023-01-06T13:13:59.000Z,95
2023-01-06T13:16:05.000Z,96
2023-01-06T13:17:32.000Z,96
2023-01-06T13:19:38.000Z,96
2023-01-06T13:21:04.000Z,96
2023-01-06T13:23:11.000Z,96
2023-01-06T13:24:37.000Z,97
2023-01-06T13:26:43.000Z,97
2023-01-06T13:28:10.000Z,96
2023-01-06T13:30:16.000Z,97
2023-01-06T13:33:07.000Z,97
2023-01-06T13:34:35.000Z,97
2023-01-06T13:36:42.000Z,96
2023-01-06T13:38:08.000Z,97
2023-01-06T13:40:14.000Z,97
2023-01-06T13:41:41.000Z,96
2023-01-06T13:43:47.000Z,96
2023-01-06T13:45:14.000Z,97
2023-01-06T13:47:20.000Z,97
2023-01-06T13:48:46.000Z,96
2023-01-06T13:50:52.000Z,96
2023-01-06T13:52:19.000Z,97
2023-01-06T13:54:25.000Z,96
2023-01-06T13:55:51.000Z,96
2023-01-06T13:57:58.000Z,96
2023-01-06T13:59:24.000Z,96
2023-01-06T14:01:30.000Z,96
2023-01-06T14:02:57.000Z,96
2023-01-06T14:05:03.000Z,96
2023-01-06T14:06:30.000Z,96
2023-01-06T14:08:36.000Z,96
2023-01-06T14:11:27.000Z,96
2023-01-06T14:12:54.000Z,96
2023-01-06T14:15:00.000Z,96
2023-01-06T14:16:26.000Z,96
2023-01-06T14:18:32.000Z,96
2023-01-06T14:19:59.000Z,96
2023-01-06T14:22:05.000Z,96
2023-01-06T14:23:32.000Z,96
2023-01-06T14:25:38.000Z,96
2023-01-06T14:27:04.000Z,96
2023-01-06T14:29:11.000Z,96
2023-01-06T14:30:37.000Z,96
2023-01-06T14:32:43.000Z,96
2023-01-06T14:34:10.000Z,96
2023-01-06T14:38:10.000Z,96
2023-01-06T14:41:49.000Z,96
2023-01-06T14:43:43.000Z,96
2023-01-06T14:45:10.000Z,96
2023-01-06T14:47:16.000Z,96
2023-01-06T14:48:42.000Z,96
2023-01-06T14:50:48.000Z,96
2023-01-06T14:52:15.000Z,96
2023-01-06T14:54:21.000Z,96
2023-01-06T14:55:48.000Z,96
2023-01-06T14:57:54.000Z,97
2023-01-06T14:59:20.000Z,97
2023-01-06T15:01:26.000Z,96
2023-01-06T15:02:53.000Z,96
2023-01-06T15:05:00.000Z,96
2023-01-06T15:06:26.000Z,96
2023-01-06T15:08:32.000Z,96
2023-01-06T15:09:59.000Z,97
2023-01-06T15:12:05.000Z,97
2023-01-06T15:13:31.000Z,97
2023-01-06T15:15:38.000Z,97
2023-01-06T15:17:04.000Z,97
2023-01-06T15:19:10.000Z,97
2023-01-06T15:22:01.000Z,97
2023-01-06T15:23:28.000Z,97
2023-01-06T15:25:34.000Z,97
2023-01-06T15:27:01.000Z,97
2023-01-06T15:29:07.000Z,97
2023-01-06T15:30:33.000Z,97
2023-01-06T15:32:39.000Z,97
2023-01-06T15:34:06.000Z,97
2023-01-06T15:36:12.000Z,98
2023-01-06T15:37:39.000Z,98
2023-01-06T15:39:45.000Z,98
2023-01-06T15:41:11.000Z,98
2023-01-06T15:43:18.000Z,98
2023-01-06T15:44:44.000Z,98
2023-01-06T15:46:50.000Z,98
2023-01-06T15:48:17.000Z,98
2023-01-06T15:50:23.000Z,98
2023-01-06T15:51:49.000Z,98
2023-01-06T15:53:56.000Z,98
2023-01-06T15:55:22.000Z,99
2023-01-06T15:57:28.000Z,99
2023-01-06T16:00:19.000Z,99
2023-01-06T16:01:46.000Z,99
2023-01-06T16:03:52.000Z,99
2023-01-06T16:05:18.000Z,99
2023-01-06T16:07:25.000Z,99
2023-01-06T16:08:51.000Z,99
2023-01-06T16:10:57.000Z,99
2023-01-06T16:12:25.000Z,99
2023-01-06T16:14:31.000Z,99
2023-01-06T16:15:58.000Z,99
2023-01-06T16:18:04.000Z,99
2023-01-06T16:19:31.000Z,98
2023-01-06T16:21:37.000Z,98
2023-01-06T16:23:03.000Z,98
2023-01-06T16:25:09.000Z,98
2023-01-06T16:26:36.000Z,98
2023-01-06T16:28:44.000Z,98
2023-01-06T16:30:11.000Z,98
2023-01-06T16:32:17.000Z,98
2023-01-06T16:33:44.000Z,98
2023-01-06T16:35:50.000Z,98
2023-01-06T16:38:41.000Z,99
2023-01-06T16:40:07.000Z,99
2023-01-06T16:42:13.000Z,99
2023-01-06T16:43:40.000Z,99
2023-01-06T16:45:46.000Z,99
2023-01-06T16:47:13.000Z,99
2023-01-06T16:49:19.000Z,99
2023-01-06T16:50:45.000Z,99
2023-01-06T16:52:51.000Z,99
2023-01-06T16:54:18.000Z,99
2023-01-06T16:56:24.000Z,99
2023-01-06T16:57:50.000Z,99
2023-01-06T16:59:57.000Z,99
2023-01-06T17:01:23.000Z,100
2023-01-06T17:03:29.000Z,100
2023-01-06T17:04:56.000Z,100
2023-01-06T17:07:02.000Z,100
2023-01-06T17:08:29.000Z,100
2023-01-06T17:10:35.000Z,100
2023-01-06T17:12:01.000Z,100
2023-01-06T17:14:07.000Z,100
2023-01-06T17:16:58.000Z,100
2023-01-06T17:18:26.000Z,100
2023-01-06T17:20:32.000Z,100
2023-01-06T17:21:59.000Z,100
2023-01-06T17:24:05.000Z,100
2023-01-06T17:25:31.000Z,100
2023-01-06T17:27:37.000Z,100
2023-01-06T17:29:04.000Z,100
2023-01-06T17:31:10.000Z,100
2023-01-06T17:32:37.000Z,100
2023-01-06T17:34:43.000Z,100
2023-01-06T17:36:09.000Z,100
2023-01-06T17:38:15.000Z,100
2023-01-06T17:39:42.000Z,100
2023-01-06T17:41:48.000Z,100
2023-01-06T17:43:15.000Z,100
2023-01-06T17:45:21.000Z,100
2023-01-06T17:46:47.000Z,100
2023-01-06T17:48:54.000Z,100
2023-01-06T17:50:20.000Z,100
2023-01-06T17:52:26.000Z,100
2023-01-06T17:55:17.000Z,100
2023-01-06T17:56:44.000Z,100
2023-01-06T17:58:50.000Z,100
2023-01-06T18:00:16.000Z,100
2023-01-06T18:02:22.000Z,100
2023-01-06T18:03:49.000Z,100
2023-01-06T18:05:55.000Z,100
2023-01-06T18:07:21.000Z,100
2023-01-06T18:09:27.000Z,100
2023-01-06T18:10:54.000Z,100
2023-01-06T18:13:00.000Z,100
2023-01-06T18:14:27.000Z,100
2023-01-06T18:16:33.000Z,100
2023-01-06T18:17:59.000Z,100
2023-01-06T18:20:05.000Z,100
2023-01-06T18:21:32.000Z,100
2023-01-06T18:23:38.000Z,100
2023-01-06T18:25:05.000Z,100
2023-01-06T18:27:11.000Z,100
2023-01-06T18:28:37.000Z,100
2023-01-06T18:30:44.000Z,100
2023-01-06T18:33:35.000Z,100
2023-01-06T18:35:01.000Z,100
2023-01-06T18:37:07.000Z,100
2023-01-06T18:38:34.000Z,100
2023-01-06T18:40:40.000Z,100
2023-01-06T18:42:07.000Z,100
2023-01-06T18:44:13.000Z,100
2023-01-06T18:45:39.000Z,100
2023-01-06T18:47:45.000Z,100
2023-01-06T18:49:12.000Z,100
2023-01-06T18:51:18.000Z,100
2023-01-06T18:52:45.000Z,100
2023-01-06T18:54:51.000Z,100
2023-01-06T18:56:17.000Z,100
2023-01-06T18:58:23.000Z,100
2023-01-06T18:59:50.000Z,100
2023-01-06T19:01:56.000Z,100
2023-01-06T19:03:23.000Z,100
2023-01-06T19:05:29.000Z,100
2023-01-06T19:06:55.000Z,100
2023-01-06T19:09:02.000Z,100
2023-01-06T19:11:52.000Z,100
2023-01-06T19:13:21.000Z,100
2023-01-06T19:15:27.000Z,100
2023-01-06T19:16:53.000Z,100
2023-01-06T19:18:59.000Z,100
2023-01-06T19:20:26.000Z,100
2023-01-06T19:22:32.000Z,100
2023-01-06T19:23:58.000Z,100
2023-01-06T19:26:04.000Z,100
2023-01-06T19:27:31.000Z,100
2023-01-06T19:29:37.000Z,100
2023-01-06T19:31:04.000Z,100
2023-01-06T19:33:10.000Z,100
2023-01-06T19:34:36.000Z,100
2023-01-06T19:36:43.000Z,100
2023-01-06T19:38:09.000Z,100
2023-01-06T19:40:15.000Z,100
2023-01-06T19:41:42.000Z,100
2023-01-06T19:43:48.000Z,100
2023-01-06T19:45:14.000Z,100
2023-01-06T19:47:21.000Z,100
2023-01-06T19:50:12.000Z,99
2023-01-06T19:51:38.000Z,100
2023-01-06T19:53:44.000Z,99
2023-01-06T19:55:11.000Z,99
2023-01-06T19:57:17.000Z,100
2023-01-06T19:58:43.000Z,100
2023-01-06T20:00:50.000Z,100
2023-01-06T20:02:16.000Z,100
2023-01-06T20:04:23.000Z,100
2023-01-06T20:05:49.000Z,100
2023-01-06T20:07:55.000Z,100
2023-01-06T20:09:22.000Z,100
2023-01-06T20:11:28.000Z,100
2023-01-06T20:12:54.000Z,100
2023-01-06T20:15:01.000Z,100
2023-01-06T20:16:27.000Z,100
2023-01-06T20:18:33.000Z,100
2023-01-06T20:20:00.000Z,100
2023-01-06T20:22:06.000Z,100
2023-01-06T20:23:33.000Z,100
2023-01-06T20:25:39.000Z,100
2023-01-06T20:28:30.000Z,100
2023-01-06T20:29:56.000Z,100
2023-01-06T20:32:02.000Z,100
2023-01-06T20:33:29.000Z,100
2023-01-06T20:35:35.000Z,100
2023-01-06T20:37:01.000Z,100
2023-01-06T20:39:08.000Z,100
2023-01-06T20:40:34.000Z,100
2023-01-06T20:42:40.000Z,100
2023-01-06T20:44:07.000Z,100
2023-01-06T20:46:13.000Z,100
2023-01-06T20:47:39.000Z,100
2023-01-06T20:49:46.000Z,100
2023-01-06T20:51:12.000Z,100
2023-01-06T20:53:18.000Z,100
2023-01-06T20:54:45.000Z,100
2023-01-06T20:56:51.000Z,100
2023-01-06T20:58:17.000Z,100
2023-01-06T21:00:23.000Z,100
2023-01-06T21:01:50.000Z,100
2023-01-06T21:03:56.000Z,100
2023-01-06T21:06:48.000Z,100
2023-01-06T21:08:14.000Z,100
2023-01-06T21:10:20.000Z,100
2023-01-06T21:11:47.000Z,100
2023-01-06T21:13:53.000Z,100
2023-01-06T21:15:19.000Z,100
2023-01-06T21:17:25.000Z,100
2023-01-06T21:18:52.000Z,100
2023-01-06T21:20:58.000Z,100
2023-01-06T21:22:25.000Z,100
2023-01-06T21:24:31.000Z,100
2023-01-06T21:25:57.000Z,100
2023-01-06T21:28:04.000Z,100
2023-01-06T21:29:30.000Z,99
2023-01-06T21:31:36.000Z,99
2023-01-06T21:33:03.000Z,99
2023-01-06T21:35:09.000Z,99
2023-01-06T21:36:35.000Z,99
2023-01-06T21:38:42.000Z,99
2023-01-06T21:40:08.000Z,99
2023-01-06T21:42:14.000Z,99
2023-01-06T21:45:05.000Z,99
2023-01-06T21:46:32.000Z,99
2023-01-06T21:48:38.000Z,99
2023-01-06T21:50:05.000Z,99
2023-01-06T21:52:11.000Z,99
2023-01-06T21:53:37.000Z,99
2023-01-06T21:55:43.000Z,99
2023-01-06T21:57:10.000Z,99
2023-01-06T21:59:16.000Z,99
2023-01-06T22:00:43.000Z,99
2023-01-06T22:02:49.000Z,99
2023-01-06T22:04:15.000Z,99
2023-01-06T22:06:21.000Z,99
2023-01-06T22:07:48.000Z,99
2023-01-06T22:09:54.000Z,99
2023-01-06T22:11:21.000Z,99
2023-01-06T22:13:27.000Z,99
2023-01-06T22:14:53.000Z,99
2023-01-06T22:16:59.000Z,99
2023-01-06T22:18:27.000Z,99
2023-01-06T22:20:33.000Z,99
2023-01-06T22:23:24.000Z,99
2023-01-06T22:24:51.000Z,99
2023-01-06T22:26:57.000Z,98
2023-01-06T22:28:23.000Z,98
2023-01-06T22:30:29.000Z,98
2023-01-06T22:31:56.000Z,99
2023-01-06T22:34:02.000Z,99
2023-01-06T22:35:29.000Z,99
2023-01-06T22:37:35.000Z,99
2023-01-06T22:39:01.000Z,99
2023-01-06T22:41:07.000Z,99
2023-01-06T22:42:34.000Z,99
2023-01-06T22:44:40.000Z,99
2023-01-06T22:46:06.000Z,99
2023-01-06T22:48:13.000Z,99
2023-01-06T22:49:39.000Z,99
2023-01-06T22:51:45.000Z,99
2023-01-06T22:53:12.000Z,99
2023-01-06T22:55:18.000Z,99
2023-01-06T22:56:44.000Z,99
2023-01-06T22:58:50.000Z,99
2023-01-06T23:01:41.000Z,99
2023-01-06T23:03:08.000Z,99
2023-01-06T23:05:14.000Z,99
2023-01-06T23:06:41.000Z,99
2023-01-06T23:08:47.000Z,99
2023-01-06T23:10:27.000Z,99
2023-01-06T23:12:33.000Z,99
2023-01-06T23:13:59.000Z,99
2023-01-06T23:16:05.000Z,99
2023-01-06T23:17:32.000Z,99
2023-01-06T23:19:38.000Z,99
2023-01-06T23:21:05.000Z,99
2023-01-06T23:23:11.000Z,99
2023-01-06T23:24:37.000Z,99
2023-01-06T23:26:43.000Z,99
2023-01-06T23:28:10.000Z,99
2023-01-06T23:30:16.000Z,99
2023-01-06T23:31:43.000Z,99
2023-01-06T23:33:49.000Z,99
2023-01-06T23:35:16.000Z,99
2023-01-06T23:37:22.000Z,99
2023-01-06T23:40:13.000Z,99
2023-01-06T23:41:40.000Z,99
2023-01-06T23:43:46.000Z,99
2023-01-06T23:45:12.000Z,99
2023-01-06T23:47:18.000Z,99
2023-01-06T23:48:45.000Z,99
2023-01-06T23:50:51.000Z,99
2023-01-06T23:52:18.000Z,99
2023-01-06T23:54:24.000Z,99
2023-01-06T23:55:50.000Z,99
2023-01-06T23:57:56.000Z,99
2023-01-06T23:59:23.000Z,99
